createdAt,value
2022-10-16T00:00:37.671Z,12
2022-10-16T00:03:37.675Z,11.8
2022-10-16T00:06:37.701Z,11.8
2022-10-16T00:09:37.680Z,11.6
2022-10-16T00:12:37.686Z,11.5
2022-10-16T00:15:37.690Z,11.5
2022-10-16T00:18:37.693Z,11.4
2022-10-16T00:21:37.689Z,11.3
2022-10-16T00:24:37.721Z,11.2
2022-10-16T00:27:37.698Z,11.2
2022-10-16T00:30:37.693Z,11.1
2022-10-16T00:33:37.701Z,11
2022-10-16T00:36:37.706Z,10.9
2022-10-16T00:39:37.701Z,10.8
2022-10-16T00:42:37.733Z,10.8
2022-10-16T00:45:37.707Z,10.8
2022-10-16T00:48:37.710Z,10.7
2022-10-16T00:51:37.719Z,10.7
2022-10-16T00:54:37.729Z,10.7
2022-10-16T00:57:37.751Z,10.7
2022-10-16T01:00:37.796Z,10.7
2022-10-16T01:03:37.773Z,10.8
2022-10-16T01:06:37.785Z,10.9
2022-10-16T01:09:37.790Z,11
2022-10-16T01:12:38.597Z,11.1
2022-10-16T01:18:37.864Z,11
2022-10-16T01:21:37.831Z,11.1
2022-10-16T01:24:37.871Z,11.1
2022-10-16T01:27:37.858Z,11.1
2022-10-16T01:30:37.871Z,11.2
2022-10-16T01:33:37.894Z,11.2
2022-10-16T01:36:37.933Z,11.2
2022-10-16T01:39:37.919Z,11.3
2022-10-16T01:42:37.925Z,11.3
2022-10-16T01:45:37.928Z,11.2
2022-10-16T01:48:37.964Z,11.2
2022-10-16T01:51:37.953Z,11.3
2022-10-16T01:54:37.987Z,11.4
2022-10-16T01:57:37.972Z,11.5
2022-10-16T02:00:37.985Z,11.6
2022-10-16T02:03:37.998Z,11.7
2022-10-16T02:06:37.998Z,11.7
2022-10-16T02:09:38.011Z,11.8
2022-10-16T02:12:38.040Z,11.9
2022-10-16T02:15:38.019Z,11.9
2022-10-16T02:18:38.033Z,12
2022-10-16T02:21:38.053Z,12.1
2022-10-16T02:24:38.055Z,12.1
2022-10-16T02:27:38.066Z,12.1
2022-10-16T02:30:38.102Z,12.1
2022-10-16T02:33:38.087Z,12.1
2022-10-16T02:36:38.091Z,12.1
2022-10-16T02:39:38.103Z,12.1
2022-10-16T02:42:38.115Z,12.1
2022-10-16T02:45:38.136Z,12.1
2022-10-16T02:48:38.167Z,12.1
2022-10-16T02:51:38.148Z,12.1
2022-10-16T02:54:38.152Z,12.1
2022-10-16T02:57:38.170Z,12
2022-10-16T03:00:38.181Z,12
2022-10-16T03:03:38.178Z,12
2022-10-16T03:06:38.213Z,11.9
2022-10-16T03:09:38.202Z,11.9
2022-10-16T03:12:38.213Z,11.8
2022-10-16T03:15:38.226Z,11.8
2022-10-16T03:18:38.231Z,11.7
2022-10-16T03:21:38.248Z,11.7
2022-10-16T03:24:38.271Z,11.7
2022-10-16T03:27:38.264Z,11.7
2022-10-16T03:30:38.281Z,11.7
2022-10-16T03:33:38.293Z,11.6
2022-10-16T03:36:38.296Z,11.6
2022-10-16T03:39:38.314Z,11.6
2022-10-16T03:42:38.350Z,11.6
2022-10-16T03:45:38.341Z,11.5
2022-10-16T03:48:38.344Z,11.5
2022-10-16T03:51:38.363Z,11.5
2022-10-16T03:54:38.365Z,11.5
2022-10-16T03:57:38.374Z,11.5
2022-10-16T04:00:38.413Z,11.5
2022-10-16T04:03:38.400Z,11.4
2022-10-16T04:06:38.414Z,11.3
2022-10-16T04:09:38.422Z,11.3
2022-10-16T04:12:38.437Z,11.3
2022-10-16T04:15:38.450Z,11.3
2022-10-16T04:18:38.482Z,11.3
2022-10-16T04:21:38.483Z,11.3
2022-10-16T04:24:38.505Z,11.3
2022-10-16T04:27:41.017Z,11.2
2022-10-16T04:30:38.539Z,11.2
2022-10-16T04:33:38.550Z,11.2
2022-10-16T04:36:38.592Z,11.1
2022-10-16T04:39:38.579Z,11.1
2022-10-16T04:42:38.593Z,11
2022-10-16T04:45:38.603Z,11
2022-10-16T04:48:38.615Z,11
2022-10-16T04:51:38.628Z,10.9
2022-10-16T04:54:38.665Z,11
2022-10-16T04:57:38.658Z,10.9
2022-10-16T05:00:38.669Z,11
2022-10-16T05:03:38.692Z,11
2022-10-16T05:06:38.706Z,11.1
2022-10-16T05:09:38.713Z,11
2022-10-16T05:12:38.763Z,11
2022-10-16T05:15:38.751Z,11
2022-10-16T05:18:38.764Z,10.9
2022-10-16T05:21:38.776Z,10.9
2022-10-16T05:24:38.792Z,10.9
2022-10-16T05:27:38.807Z,10.8
2022-10-16T05:30:38.855Z,10.8
2022-10-16T05:33:38.905Z,10.7
2022-10-16T05:36:38.844Z,10.7
2022-10-16T05:39:38.852Z,10.8
2022-10-16T05:42:38.878Z,11
2022-10-16T05:45:38.914Z,11.1
2022-10-16T05:48:38.929Z,11.1
2022-10-16T05:51:38.904Z,11.2
2022-10-16T05:54:38.904Z,11.2
2022-10-16T05:57:38.903Z,11.2
2022-10-16T06:00:38.908Z,11.2
2022-10-16T06:03:38.909Z,11.2
2022-10-16T06:06:38.955Z,11.1
2022-10-16T06:09:38.928Z,11.1
2022-10-16T06:12:38.947Z,11
2022-10-16T06:15:38.934Z,11
2022-10-16T06:18:38.940Z,10.9
2022-10-16T06:21:38.936Z,10.9
2022-10-16T06:24:38.962Z,11
2022-10-16T06:27:38.942Z,11.1
2022-10-16T06:30:38.940Z,11.2
2022-10-16T06:33:38.939Z,11.3
2022-10-16T06:36:38.944Z,11.4
2022-10-16T06:39:38.945Z,11.5
2022-10-16T06:42:38.975Z,11.6
2022-10-16T06:45:38.951Z,11.8
2022-10-16T06:48:38.956Z,11.9
2022-10-16T06:51:40.466Z,12
2022-10-16T06:54:42.232Z,12
2022-10-16T06:57:38.959Z,12.2
2022-10-16T07:00:38.990Z,12.2
2022-10-16T07:03:38.965Z,12.3
2022-10-16T07:06:38.970Z,12.5
2022-10-16T07:09:38.973Z,12.6
2022-10-16T07:12:38.977Z,12.6
2022-10-16T07:15:38.982Z,12.6
2022-10-16T07:18:39.001Z,12.8
2022-10-16T07:21:38.994Z,13
2022-10-16T07:24:38.994Z,13.2
2022-10-16T07:27:38.995Z,13.4
2022-10-16T07:30:38.991Z,13.7
2022-10-16T07:33:38.992Z,13.8
2022-10-16T07:36:39.064Z,13.9
2022-10-16T07:39:39.000Z,14.1
2022-10-16T07:42:39.007Z,14.1
2022-10-16T07:45:39.004Z,14.1
2022-10-16T07:48:39.010Z,14
2022-10-16T07:51:39.020Z,14.3
2022-10-16T07:54:39.035Z,14.4
2022-10-16T07:57:39.019Z,14.4
2022-10-16T08:00:39.020Z,14.5
2022-10-16T08:03:39.024Z,14.3
2022-10-16T08:06:39.032Z,14.3
2022-10-16T08:09:39.039Z,14.2
2022-10-16T08:12:39.063Z,14.3
2022-10-16T08:15:39.048Z,14.4
2022-10-16T08:18:39.053Z,14.3
2022-10-16T08:21:39.057Z,14.5
2022-10-16T08:24:39.063Z,14.5
2022-10-16T08:27:39.076Z,14.3
2022-10-16T08:30:39.104Z,13.8
2022-10-16T08:33:39.080Z,13.7
2022-10-16T08:36:39.087Z,13.8
2022-10-16T08:39:39.098Z,13.9
2022-10-16T08:42:39.085Z,14
2022-10-16T08:45:39.095Z,14
2022-10-16T08:48:39.125Z,14.1
2022-10-16T08:51:40.356Z,14.2
2022-10-16T08:54:39.113Z,14.1
2022-10-16T08:57:39.121Z,14
2022-10-16T09:00:39.178Z,13.8
2022-10-16T09:03:39.131Z,13.6
2022-10-16T09:06:39.161Z,13.9
2022-10-16T09:09:39.141Z,14.2
2022-10-16T09:12:39.149Z,14.3
2022-10-16T09:15:39.149Z,14.4
2022-10-16T09:18:39.158Z,14.4
2022-10-16T09:21:39.161Z,14.3
2022-10-16T09:24:39.195Z,14.1
2022-10-16T09:27:39.164Z,13.9
2022-10-16T09:30:39.173Z,13.7
2022-10-16T09:33:39.183Z,13.4
2022-10-16T09:36:39.184Z,13.1
2022-10-16T09:39:39.197Z,13
2022-10-16T09:42:39.217Z,12.9
2022-10-16T09:45:39.204Z,13.3
2022-10-16T09:48:39.229Z,13.5
2022-10-16T09:51:39.224Z,13.6
2022-10-16T09:54:39.223Z,13.7
2022-10-16T09:57:39.233Z,13.7
2022-10-16T10:00:39.266Z,13.4
2022-10-16T10:03:39.247Z,13.7
2022-10-16T10:06:39.256Z,13.7
2022-10-16T10:09:39.268Z,13.6
2022-10-16T10:12:39.271Z,13.6
2022-10-16T10:15:39.275Z,13.8
2022-10-16T10:18:39.299Z,13.8
2022-10-16T10:21:39.288Z,13.6
2022-10-16T10:24:39.297Z,13.4
2022-10-16T10:27:39.297Z,13.7
2022-10-16T10:30:39.308Z,13.7
2022-10-16T10:33:39.315Z,13.8
2022-10-16T10:36:39.347Z,13.8
2022-10-16T10:39:39.333Z,13.4
2022-10-16T10:42:39.356Z,13.2
2022-10-16T10:45:39.350Z,12.7
2022-10-16T10:48:39.362Z,12.8
2022-10-16T10:51:39.367Z,13.1
2022-10-16T10:54:39.394Z,13.1
2022-10-16T10:57:39.384Z,13
2022-10-16T11:00:39.403Z,13.1
2022-10-16T11:03:39.402Z,13.2
2022-10-16T11:06:39.445Z,13
2022-10-16T11:09:39.420Z,13.2
2022-10-16T11:12:39.456Z,12.9
2022-10-16T11:15:39.478Z,11.7
2022-10-16T11:18:39.447Z,11.3
2022-10-16T11:21:39.456Z,11
2022-10-16T11:24:39.471Z,11.1
2022-10-16T11:27:39.484Z,11.2
2022-10-16T11:30:39.521Z,11.1
2022-10-16T11:33:39.506Z,11.1
2022-10-16T11:36:39.522Z,11.4
2022-10-16T11:39:39.516Z,11.6
2022-10-16T11:42:39.534Z,11.4
2022-10-16T11:45:39.539Z,10.9
2022-10-16T11:48:39.576Z,10.9
2022-10-16T11:51:39.561Z,10.8
2022-10-16T11:54:39.567Z,10.9
2022-10-16T11:57:39.572Z,10.8
2022-10-16T12:00:39.583Z,10.9
2022-10-16T12:03:39.705Z,11
2022-10-16T12:06:39.632Z,11.2
2022-10-16T12:09:39.613Z,11.2
2022-10-16T12:12:40.031Z,11.4
2022-10-16T12:15:57.987Z,11.3
2022-10-16T12:18:39.649Z,11.3
2022-10-16T12:21:39.656Z,11.2
2022-10-16T12:24:39.689Z,11.2
2022-10-16T12:27:39.678Z,11.4
2022-10-16T12:30:39.690Z,11.3
2022-10-16T12:33:39.700Z,10.7
2022-10-16T12:36:39.721Z,10.8
2022-10-16T12:39:39.730Z,10.8
2022-10-16T12:42:39.762Z,10.8
2022-10-16T12:45:39.750Z,11
2022-10-16T12:48:48.189Z,11
2022-10-16T12:51:39.784Z,11
2022-10-16T12:54:39.790Z,10.9
2022-10-16T12:57:39.814Z,10.9
2022-10-16T13:00:39.895Z,10.9
2022-10-16T13:03:39.830Z,10.8
2022-10-16T13:06:39.849Z,10.8
2022-10-16T13:09:39.860Z,10.6
2022-10-16T13:12:39.872Z,10.6
2022-10-16T13:15:39.883Z,10.7
2022-10-16T13:18:39.914Z,10.5
2022-10-16T13:21:39.901Z,10.4
2022-10-16T13:24:39.891Z,10.4
2022-10-16T13:27:39.903Z,10.6
2022-10-16T13:30:39.911Z,10.4
2022-10-16T13:33:39.914Z,10.5
2022-10-16T13:36:39.950Z,10.6
2022-10-16T13:39:39.924Z,10.5
2022-10-16T13:42:39.928Z,10.6
2022-10-16T13:45:39.939Z,10.5
2022-10-16T13:48:39.937Z,10.5
2022-10-16T13:51:39.947Z,10.4
2022-10-16T13:54:39.953Z,10.4
2022-10-16T13:57:39.933Z,10.5
2022-10-16T14:00:39.939Z,10.4
2022-10-16T14:03:39.942Z,10.6
2022-10-16T14:06:39.939Z,10.5
2022-10-16T14:09:39.964Z,10.4
2022-10-16T14:12:39.965Z,10.5
2022-10-16T14:15:39.948Z,10.4
2022-10-16T14:18:39.944Z,10.4
2022-10-16T14:21:39.950Z,10.3
2022-10-16T14:24:39.945Z,10.3
2022-10-16T14:27:39.949Z,10.3
2022-10-16T14:30:39.974Z,10.2
2022-10-16T14:33:39.951Z,10.2
2022-10-16T14:36:39.954Z,10.2
2022-10-16T14:39:39.959Z,10.3
2022-10-16T14:42:39.961Z,10.3
2022-10-16T14:45:39.961Z,10.4
2022-10-16T14:48:39.980Z,10.4
2022-10-16T14:51:39.961Z,10.3
2022-10-16T14:54:39.954Z,10.4
2022-10-16T14:57:39.962Z,10.4
2022-10-16T15:00:39.966Z,10.5
2022-10-16T15:03:40.017Z,10.5
2022-10-16T15:06:39.994Z,10.6
2022-10-16T15:09:39.962Z,10.6
2022-10-16T15:12:39.963Z,10.5
2022-10-16T15:15:39.972Z,10.4
2022-10-16T15:18:39.965Z,10.4
2022-10-16T15:21:39.967Z,10.3
2022-10-16T15:24:39.989Z,10.3
2022-10-16T15:27:39.970Z,10.4
2022-10-16T15:30:39.976Z,10.4
2022-10-16T15:33:40.127Z,10.3
2022-10-16T15:36:39.970Z,10.3
2022-10-16T15:39:40.574Z,10.3
2022-10-16T15:42:40.002Z,10.3
2022-10-16T15:45:39.977Z,10.3
2022-10-16T15:48:39.985Z,10.3
2022-10-16T15:51:39.982Z,10.3
2022-10-16T15:54:39.986Z,10.2
2022-10-16T15:57:39.987Z,10.2
2022-10-16T16:00:40.031Z,10.2
2022-10-16T16:03:39.997Z,10.2
2022-10-16T16:06:39.993Z,10.2
2022-10-16T16:09:39.995Z,10.1
2022-10-16T16:12:39.997Z,10.1
2022-10-16T16:15:40.006Z,10.1
2022-10-16T16:18:40.023Z,10.1
2022-10-16T16:21:40.005Z,10
2022-10-16T16:24:40.009Z,10
2022-10-16T16:27:40.017Z,10
2022-10-16T16:30:40.006Z,10
2022-10-16T16:33:40.008Z,9.9
2022-10-16T16:36:40.037Z,9.9
2022-10-16T16:39:40.011Z,9.9
2022-10-16T16:42:40.019Z,10
2022-10-16T16:45:40.017Z,10
2022-10-16T16:48:40.016Z,9.9
2022-10-16T16:51:40.597Z,10
2022-10-16T16:54:40.126Z,10
2022-10-16T16:57:40.029Z,10
2022-10-16T17:00:44.163Z,10
2022-10-16T17:03:40.063Z,10
2022-10-16T17:06:40.024Z,9.9
2022-10-16T17:09:40.028Z,9.8
2022-10-16T17:12:40.146Z,9.8
2022-10-16T17:15:40.034Z,9.9
2022-10-16T17:18:40.034Z,10
2022-10-16T17:21:40.043Z,9.9
2022-10-16T17:24:40.054Z,9.9
2022-10-16T17:27:40.052Z,9.8
2022-10-16T17:30:40.085Z,9.8
2022-10-16T17:33:40.060Z,10
2022-10-16T17:36:40.063Z,9.9
2022-10-16T17:39:40.064Z,9.8
2022-10-16T17:42:40.061Z,10
2022-10-16T17:45:40.065Z,10.1
2022-10-16T17:48:40.085Z,10
2022-10-16T17:51:40.070Z,10.1
2022-10-16T17:54:40.073Z,10.1
2022-10-16T17:57:40.075Z,10.2
2022-10-16T18:00:40.080Z,10.2
2022-10-16T18:03:40.085Z,10.2
2022-10-16T18:06:40.107Z,10.3
2022-10-16T18:09:42.490Z,10.3
2022-10-16T18:12:40.101Z,10.5
2022-10-16T18:15:40.099Z,10.4
2022-10-16T18:18:40.100Z,10.4
2022-10-16T18:21:40.099Z,10.4
2022-10-16T18:24:40.129Z,10.4
2022-10-16T18:27:40.112Z,10.3
2022-10-16T18:30:40.113Z,10.4
2022-10-16T18:33:40.125Z,10.3
2022-10-16T18:36:40.111Z,10.3
2022-10-16T18:39:40.121Z,10.3
2022-10-16T18:42:40.146Z,10.2
2022-10-16T18:45:40.125Z,10.1
2022-10-16T18:48:40.131Z,10.3
2022-10-16T18:51:40.131Z,10.4
2022-10-16T18:54:40.135Z,10.4
2022-10-16T18:57:40.141Z,10.4
2022-10-16T19:00:40.157Z,10.3
2022-10-16T19:03:40.146Z,10.3
2022-10-16T19:06:40.146Z,10.3
2022-10-16T19:09:40.149Z,10.3
2022-10-16T19:12:40.144Z,10.3
2022-10-16T19:15:40.157Z,10.3
2022-10-16T19:18:40.175Z,10.4
2022-10-16T19:21:40.156Z,10.4
2022-10-16T19:24:40.164Z,10.4
2022-10-16T19:27:40.158Z,10.4
2022-10-16T19:30:40.164Z,10.3
2022-10-16T19:33:40.167Z,10.3
2022-10-16T19:36:40.198Z,10.2
2022-10-16T19:39:40.180Z,10.2
2022-10-16T19:42:40.172Z,10.2
2022-10-16T19:45:40.178Z,10.1
2022-10-16T19:48:40.177Z,10.2
2022-10-16T19:51:40.172Z,10.3
2022-10-16T19:54:40.214Z,10.2
2022-10-16T19:57:40.191Z,10.2
2022-10-16T20:00:40.199Z,10.2
2022-10-16T20:03:40.190Z,10.2
2022-10-16T20:06:40.192Z,10.2
2022-10-16T20:09:40.203Z,10.3
2022-10-16T20:12:40.228Z,10.2
2022-10-16T20:15:40.205Z,10.2
2022-10-16T20:18:40.211Z,10.2
2022-10-16T20:21:40.211Z,10.2
2022-10-16T20:24:40.213Z,10.2
2022-10-16T20:27:40.223Z,10.2
2022-10-16T20:30:40.249Z,10.2
2022-10-16T20:33:40.224Z,10.2
2022-10-16T20:36:40.233Z,10.1
2022-10-16T20:39:40.233Z,10.1
2022-10-16T20:42:40.243Z,10.2
2022-10-16T20:45:40.257Z,10.2
2022-10-16T20:48:40.281Z,10.2
2022-10-16T20:51:40.263Z,10.1
2022-10-16T20:54:40.266Z,10.1
2022-10-16T20:57:40.272Z,10.1
2022-10-16T21:00:40.272Z,10.1
2022-10-16T21:03:40.279Z,10.1
2022-10-16T21:06:40.308Z,10.1
2022-10-16T21:09:40.291Z,10.1
2022-10-16T21:12:40.295Z,10.1
2022-10-16T21:15:40.302Z,10.1
2022-10-16T21:18:44.130Z,10.1
2022-10-16T21:21:40.303Z,10.1
2022-10-16T21:24:40.331Z,10.2
2022-10-16T21:27:40.320Z,10.3
2022-10-16T21:30:40.324Z,10.3
2022-10-16T21:33:40.325Z,10.3
2022-10-16T21:36:40.334Z,10.3
2022-10-16T21:39:40.331Z,10.3
2022-10-16T21:42:40.363Z,10.4
2022-10-16T21:45:40.344Z,10.4
2022-10-16T21:48:40.349Z,10.4
2022-10-16T21:51:40.354Z,10.4
2022-10-16T21:54:40.361Z,10.5
2022-10-16T21:57:40.365Z,10.5
2022-10-16T22:00:40.403Z,10.5
2022-10-16T22:03:40.376Z,10.5
2022-10-16T22:06:40.378Z,10.5
2022-10-16T22:09:40.377Z,10.6
2022-10-16T22:12:40.384Z,10.6
2022-10-16T22:15:40.386Z,10.6
2022-10-16T22:18:40.418Z,10.6
2022-10-16T22:21:40.402Z,10.6
2022-10-16T22:24:40.404Z,10.6
2022-10-16T22:27:40.410Z,10.7
2022-10-16T22:30:40.413Z,10.7
2022-10-16T22:33:40.415Z,10.7
2022-10-16T22:36:40.453Z,10.7
2022-10-16T22:39:40.433Z,10.8
2022-10-16T22:42:40.462Z,10.8
2022-10-16T22:45:40.439Z,10.9
2022-10-16T22:48:40.448Z,10.9
2022-10-16T22:51:40.524Z,11
2022-10-16T22:54:40.478Z,11
2022-10-16T22:57:40.466Z,11
2022-10-16T23:00:40.474Z,11
2022-10-16T23:03:40.481Z,11.1
2022-10-16T23:06:40.485Z,11.1
2022-10-16T23:09:40.493Z,11.1
2022-10-16T23:12:40.522Z,11.1
2022-10-16T23:15:40.505Z,11.2
2022-10-16T23:18:40.519Z,11.2
2022-10-16T23:21:40.517Z,11.3
2022-10-16T23:24:40.527Z,11.3
2022-10-16T23:27:40.528Z,11.3
2022-10-16T23:30:40.563Z,11.3
2022-10-16T23:33:40.541Z,11.4
2022-10-16T23:36:40.545Z,11.4
2022-10-16T23:39:40.561Z,11.4
2022-10-16T23:42:40.561Z,11.5
2022-10-16T23:45:40.566Z,11.5
2022-10-16T23:48:40.601Z,11.5
2022-10-16T23:51:40.578Z,11.5
2022-10-16T23:54:40.582Z,11.4
2022-10-16T23:57:40.591Z,11.3
